Time;durP1;ratioP1;P1;durP2;ratioP2;P2;SDS_P1;SDS_P2;PMS_P1;PMS_P2;Temp;Humidity;BMP_temperature;BMP_pressure;BME280_temperature;BME280_humidity;BME280_pressure;Samples;Min_cycle;Max_cycle;Signal;HPM_P1;HPM_P2
2024/01/20 00:02:28;;;;;;;6.53;3.10;;;;;;;9.77;71.56;100776.22;10266325;28;96649;-76
2024/01/20 00:07:33;;;;;;;4.30;2.95;;;;;;;9.74;70.42;100789.44;10269565;28;96755;-76
2024/01/20 00:12:37;;;;;;;4.88;3.05;;;;;;;9.74;70.36;100799.97;10265084;28;96746;-77
2024/01/20 00:17:42;;;;;;;6.95;3.33;;;;;;;9.73;70.08;100798.22;10266382;28;97610;-77
2024/01/20 00:22:46;;;;;;;5.75;3.05;;;;;;;9.68;67.94;100816.75;10289534;28;96881;-77
2024/01/20 00:27:50;;;;;;;5.28;2.42;;;;;;;9.64;69.68;100815.09;10302321;28;96711;-76
2024/01/20 00:32:57;;;;;;;3.65;2.38;;;;;;;9.63;67.77;100823.03;10295851;28;96953;-77
2024/01/20 00:38:01;;;;;;;3.33;2.05;;;;;;;9.62;67.45;100834.47;10291387;28;96978;-77
2024/01/20 00:43:06;;;;;;;2.92;1.80;;;;;;;9.52;67.38;100833.81;10301884;28;98843;-76
2024/01/20 00:48:11;;;;;;;3.10;1.85;;;;;;;9.45;64.43;100824.38;10302539;28;96814;-76
2024/01/20 00:53:15;;;;;;;2.50;1.70;;;;;;;9.34;63.20;100836.06;10281557;28;96813;-77
2024/01/20 00:58:18;;;;;;;2.22;1.48;;;;;;;9.31;62.60;100836.16;10289222;28;96715;-77
2024/01/20 01:03:23;;;;;;;2.15;1.40;;;;;;;9.23;61.29;100833.66;10273615;28;96810;-77
2024/01/20 01:08:27;;;;;;;;;;;;;;;9.11;59.96;100837.47;10296502;28;97005;-77
2024/01/20 01:13:30;;;;;;;2.60;1.13;;;;;;;9.11;60.20;100829.59;10297516;28;97037;-77
2024/01/20 01:18:35;;;;;;;2.10;1.45;;;;;;;9.09;58.55;100828.75;10282199;28;98741;-77
2024/01/20 01:23:39;;;;;;;1.85;0.90;;;;;;;8.93;58.71;100821.31;10272151;28;96884;-77
2024/01/20 01:28:42;;;;;;;1.77;0.95;;;;;;;8.91;57.46;100825.72;10289045;28;96765;-77
2024/01/20 01:33:47;;;;;;;4.10;1.13;;;;;;;8.90;55.83;100823.97;10291366;28;97228;-77
2024/01/20 01:38:51;;;;;;;1.48;1.00;;;;;;;8.81;55.97;100829.44;10294998;28;98648;-77
2024/01/20 01:43:54;;;;;;;2.17;1.17;;;;;;;8.75;55.45;100835.72;10294899;28;96782;-77
2024/01/20 01:48:59;;;;;;;2.33;1.27;;;;;;;8.72;55.61;100851.50;10274747;28;96787;-77
2024/01/20 01:54:03;;;;;;;;;;;;;;;8.65;55.06;100862.19;10282559;28;97337;-77
2024/01/20 01:59:07;;;;;;;3.15;1.15;;;;;;;8.65;56.19;100891.88;10284698;28;97297;-77
2024/01/20 02:04:12;;;;;;;1.75;1.20;;;;;;;8.59;56.08;100885.91;10275798;28;96754;-77
2024/01/20 02:09:18;;;;;;;3.13;1.10;;;;;;;8.56;56.31;100901.72;10282027;28;97137;-77
2024/01/20 02:14:21;;;;;;;;;;;;;;;8.59;55.26;100907.78;10293016;28;96861;-77
2024/01/20 02:19:27;;;;;;;1.77;0.90;;;;;;;8.54;55.34;100917.50;10219825;22;96986;-77
2024/01/20 02:24:32;;;;;;;1.80;1.05;;;;;;;8.51;55.74;100930.69;10218254;28;96758;-77
2024/01/20 02:29:38;;;;;;;3.40;1.33;;;;;;;8.46;55.21;100939.53;10216432;28;96780;-77
2024/01/20 02:34:42;;;;;;;2.03;1.30;;;;;;;8.52;55.52;100942.91;10216328;28;97359;-76
2024/01/20 02:39:47;;;;;;;1.58;1.10;;;;;;;8.40;55.21;100958.00;10226683;28;96703;-77
2024/01/20 02:44:51;;;;;;;2.33;1.30;;;;;;;8.34;54.42;100966.84;10213507;28;96846;-77
2024/01/20 02:49:55;;;;;;;2.58;1.05;;;;;;;8.31;54.04;100961.69;10212237;28;96757;-77
2024/01/20 02:55:00;;;;;;;1.15;0.85;;;;;;;8.29;53.41;100950.34;10226447;28;96861;-77
2024/01/20 03:00:04;;;;;;;1.42;0.80;;;;;;;8.30;53.56;100973.06;10216735;28;96835;-77
2024/01/20 03:05:08;;;;;;;2.13;1.00;;;;;;;8.21;53.01;100965.38;10215255;28;98487;-77
2024/01/20 03:10:13;;;;;;;1.73;1.10;;;;;;;8.18;52.09;100967.19;10216062;28;96862;-77
2024/01/20 03:15:17;;;;;;;;;;;;;;;8.09;52.55;100975.22;10209846;28;96788;-77
2024/01/20 03:20:20;;;;;;;1.00;0.70;;;;;;;8.17;52.60;100997.75;10217280;28;96717;-77
2024/01/20 03:25:25;;;;;;;2.38;0.90;;;;;;;8.14;51.19;100999.56;10214769;28;98708;-77
2024/01/20 03:30:29;;;;;;;1.80;0.77;;;;;;;8.10;51.88;101001.38;10217541;28;96842;-77
2024/01/20 03:35:32;;;;;;;1.48;0.60;;;;;;;8.09;52.69;101004.03;10213079;28;96827;-79
2024/01/20 03:40:37;;;;;;;1.90;0.77;;;;;;;8.05;53.27;100991.91;10214193;28;97150;-79
2024/01/20 03:45:43;;;;;;;1.42;0.70;;;;;;;7.99;53.06;101019.91;10221382;28;96867;-78
2024/01/20 03:50:46;;;;;;;1.77;0.75;;;;;;;7.93;52.25;101004.31;10214196;28;96911;-78
2024/01/20 03:55:51;;;;;;;1.48;0.88;;;;;;;7.95;53.30;101014.75;10214120;28;98714;-78
2024/01/20 04:00:55;;;;;;;1.33;0.70;;;;;;;7.90;53.56;101029.69;10220671;28;98576;-78
2024/01/20 04:05:58;;;;;;;2.00;0.93;;;;;;;7.89;53.71;101030.59;10221513;28;96836;-78
2024/01/20 04:11:03;;;;;;;1.20;0.85;;;;;;;7.80;54.24;101022.88;10220930;28;97145;-78
2024/01/20 04:16:07;;;;;;;0.73;0.60;;;;;;;7.78;54.15;101035.13;10220172;28;96790;-78
2024/01/20 04:21:10;;;;;;;1.80;0.70;;;;;;;7.70;53.52;101047.50;10221780;28;96737;-78
2024/01/20 04:26:16;;;;;;;0.93;0.52;;;;;;;7.70;53.86;101052.75;10219340;28;96790;-78
2024/01/20 04:31:19;;;;;;;1.17;0.60;;;;;;;7.65;53.46;101059.78;10221243;28;96695;-78
2024/01/20 04:36:23;;;;;;;1.05;0.70;;;;;;;7.62;54.17;101070.31;10222731;28;98604;-78
2024/01/20 04:41:28;;;;;;;2.30;0.63;;;;;;;7.58;54.40;101082.56;10226402;28;96941;-79
2024/01/20 04:46:31;;;;;;;2.47;0.70;;;;;;;7.50;54.05;101081.84;10213408;28;96858;-78
2024/01/20 04:51:35;;;;;;;1.13;0.70;;;;;;;7.48;54.30;101101.06;10220493;28;98581;-78
2024/01/20 04:56:41;;;;;;;0.90;0.60;;;;;;;7.48;52.43;101101.06;10220152;28;98632;-78
2024/01/20 05:01:49;;;;;;;1.17;0.75;;;;;;;7.48;51.84;101122.88;10218986;28;96706;-79
2024/01/20 05:06:52;;;;;;;0.93;0.60;;;;;;;7.40;51.53;101116.00;10216591;28;96945;-79
2024/01/20 05:11:57;;;;;;;1.80;0.80;;;;;;;7.38;51.79;101136.09;10220099;28;98013;-78
2024/01/20 05:17:01;;;;;;;;;;;;;;;7.26;52.13;101131.91;10213875;28;96971;-79
2024/01/20 05:22:05;;;;;;;1.58;0.50;;;;;;;7.24;51.99;101130.19;10218733;28;96904;-79
2024/01/20 05:27:10;;;;;;;1.15;0.60;;;;;;;7.29;50.88;101129.25;10221615;28;97001;-78
2024/01/20 05:32:13;;;;;;;;;;;;;;;7.18;50.04;101131.09;10217907;28;96847;-78
2024/01/20 05:37:17;;;;;;;1.00;0.82;;;;;;;7.12;51.80;101133.81;10214601;28;96822;-78
2024/01/20 05:42:22;;;;;;;1.05;0.68;;;;;;;7.13;50.01;101140.75;10218270;28;97145;-78
2024/01/20 05:47:25;;;;;;;0.90;0.70;;;;;;;7.06;50.06;101157.41;10220391;28;97069;-78
2024/01/20 05:52:29;;;;;;;1.23;0.60;;;;;;;7.04;50.21;101168.81;10219353;28;96752;-79
2024/01/20 05:57:33;;;;;;;2.35;0.60;;;;;;;7.01;50.85;101179.31;10218166;28;96733;-78
2024/01/20 06:02:37;;;;;;;0.70;0.50;;;;;;;6.98;51.03;101184.56;10237319;28;97060;-78
2024/01/20 06:07:41;;;;;;;0.73;0.47;;;;;;;6.97;50.41;101203.75;10192693;28;96794;-78
2024/01/20 06:12:46;;;;;;;1.45;0.50;;;;;;;6.99;50.24;101213.31;10214269;28;98462;-78
2024/01/20 06:17:49;;;;;;;0.50;0.50;;;;;;;6.85;51.07;101220.47;10216032;28;98309;-81
2024/01/20 06:22:53;;;;;;;0.95;0.68;;;;;;;6.82;50.68;101226.56;10218115;28;97612;-81
2024/01/20 06:27:58;;;;;;;0.73;0.38;;;;;;;6.78;50.65;101229.22;10216809;28;97597;-81
2024/01/20 06:33:01;;;;;;;1.17;0.63;;;;;;;6.74;50.53;101241.44;10217556;28;96920;-82
2024/01/20 06:38:06;;;;;;;1.33;0.60;;;;;;;6.70;50.63;101246.69;10227456;28;96722;-81
2024/01/20 06:43:11;;;;;;;1.40;0.60;;;;;;;6.67;51.31;101254.56;10216710;28;96841;-81
2024/01/20 06:48:14;;;;;;;0.80;0.57;;;;;;;6.68;51.76;101264.13;10215369;28;96665;-76
2024/01/20 06:53:18;;;;;;;1.10;0.77;;;;;;;6.57;51.40;101252.91;10223212;28;96910;-77
2024/01/20 06:58:24;;;;;;;1.02;0.70;;;;;;;6.51;52.21;101264.28;10215008;28;96933;-78
2024/01/20 07:03:28;;;;;;;1.38;0.90;;;;;;;6.43;51.55;101279.16;10215131;28;98817;-78
2024/01/20 07:08:32;;;;;;;1.48;0.80;;;;;;;6.39;52.01;101280.03;10218725;28;98134;-79
2024/01/20 07:13:37;;;;;;;1.15;0.75;;;;;;;6.31;51.85;101289.69;10230813;28;98619;-78
2024/01/20 07:18:42;;;;;;;1.17;0.80;;;;;;;6.33;51.64;101303.59;10215217;28;97169;-80
2024/01/20 07:23:46;;;;;;;0.88;0.60;;;;;;;6.30;51.73;101319.31;10213963;28;97830;-89
2024/01/20 07:28:51;;;;;;;1.08;0.55;;;;;;;6.16;51.77;101320.25;10215819;28;97333;-82
2024/01/20 07:33:55;;;;;;;0.85;0.68;;;;;;;6.20;52.38;101329.81;10212313;28;96832;-80
2024/01/20 07:38:58;;;;;;;1.13;0.80;;;;;;;6.05;53.17;101349.06;10215231;28;96781;-80
2024/01/20 07:44:03;;;;;;;2.13;1.08;;;;;;;6.04;53.49;101351.69;10219323;28;96739;-80
2024/01/20 07:49:07;;;;;;;;;;;;;;;5.99;53.66;101369.97;10224564;28;96880;-80
2024/01/20 07:54:12;;;;;;;0.98;0.80;;;;;;;5.99;54.05;101367.34;10213161;28;97010;-81
2024/01/20 07:59:17;;;;;;;0.75;0.70;;;;;;;5.93;53.23;101374.34;10214212;28;98034;-92
2024/01/20 08:04:20;;;;;;;1.13;1.00;;;;;;;5.93;53.93;101374.34;10218420;28;96917;-92
2024/01/20 08:09:24;;;;;;;1.88;0.90;;;;;;;5.88;53.95;101382.19;10213592;28;98544;-90
2024/01/20 08:14:29;;;;;;;1.33;0.82;;;;;;;5.80;54.24;101381.34;10213688;28;96957;-90
2024/01/20 08:19:32;;;;;;;1.55;0.82;;;;;;;5.73;54.33;101397.03;10219679;28;97455;-90
2024/01/20 08:24:36;;;;;;;1.10;0.80;;;;;;;5.79;53.89;101387.44;10216886;28;96838;-91
2024/01/20 08:29:41;;;;;;;1.73;1.33;;;;;;;5.66;53.56;101381.38;10215888;28;96774;-91
2024/01/20 08:34:45;;;;;;;2.10;1.00;;;;;;;5.60;53.94;101381.41;10216931;28;96950;-91
2024/01/20 08:39:48;;;;;;;2.08;1.10;;;;;;;5.66;53.69;101375.25;10212896;28;97067;-91
2024/01/20 08:44:54;;;;;;;2.10;0.90;;;;;;;5.73;53.77;101377.00;10215271;28;96896;-90
2024/01/20 08:49:59;;;;;;;1.08;0.82;;;;;;;5.86;51.52;101376.09;10218636;28;98610;-89
2024/01/20 08:55:07;;;;;;;1.17;0.90;;;;;;;6.07;51.48;101391.72;10222894;28;96762;-90
2024/01/20 09:00:17;;;;;;;1.23;0.70;;;;;;;6.27;51.21;101402.09;10218717;28;96921;-89
2024/01/20 09:05:22;;;;;;;1.50;0.85;;;;;;;6.40;51.12;101411.63;10218347;28;96914;-82
2024/01/20 09:10:27;;;;;;;1.27;0.90;;;;;;;6.48;50.37;101420.28;10217962;28;96980;-84
2024/01/20 09:15:32;;;;;;;1.60;0.90;;;;;;;6.65;50.52;101427.19;10206417;28;97186;-79
2024/01/20 09:20:36;;;;;;;1.30;0.85;;;;;;;6.74;50.15;101436.72;10217231;28;97071;-83
2024/01/20 09:25:40;;;;;;;2.35;1.58;;;;;;;6.86;49.71;101433.19;10220159;28;96778;-85
2024/01/20 09:30:46;;;;;;;2.53;1.10;;;;;;;6.95;49.90;101439.25;10218570;28;97011;-84
2024/01/20 09:35:50;;;;;;;2.97;1.33;;;;;;;7.05;48.88;101432.22;10227029;28;97556;-82
2024/01/20 09:40:54;;;;;;;1.85;1.13;;;;;;;7.08;48.04;101447.91;10221820;28;96813;-83
2024/01/20 09:45:59;;;;;;;4.97;1.70;;;;;;;7.24;48.04;101452.16;10219131;28;97785;-83
2024/01/20 09:51:03;;;;;;;2.45;1.10;;;;;;;7.39;47.63;101446.81;10221825;28;96569;-82
2024/01/20 09:56:07;;;;;;;6.70;1.38;;;;;;;7.42;47.37;101445.03;10211536;28;98403;-87
2024/01/20 10:01:12;;;;;;;3.80;1.42;;;;;;;7.53;46.93;101444.94;10206459;28;96759;-83
2024/01/20 10:06:16;;;;;;;;;;;;;;;7.59;46.15;101435.28;10217781;28;96901;-82
2024/01/20 10:11:20;;;;;;;2.90;1.33;;;;;;;7.75;46.07;101459.59;10218608;28;96655;-80
2024/01/20 10:16:25;;;;;;;1.77;1.10;;;;;;;7.73;45.75;101462.25;10215713;28;98671;-81
2024/01/20 10:21:28;;;;;;;2.30;1.55;;;;;;;7.92;46.06;101452.44;10219301;28;96762;-82
2024/01/20 10:26:32;;;;;;;4.05;1.42;;;;;;;7.95;45.75;101473.38;10218592;28;96884;-85
2024/01/20 10:31:38;;;;;;;2.47;1.10;;;;;;;7.99;45.00;101467.22;10215003;28;96817;-81
2024/01/20 10:36:45;;;;;;;4.35;1.60;;;;;;;8.03;44.04;101455.81;10217633;28;96836;-81
2024/01/20 10:41:53;;;;;;;1.85;1.45;;;;;;;7.96;44.05;101451.53;10212130;28;98855;-86
2024/01/20 10:47:04;;;;;;;2.38;1.60;;;;;;;8.04;44.31;101469.78;10214619;28;96898;-85
2024/01/20 10:52:08;;;;;;;3.83;1.67;;;;;;;8.20;44.46;101472.25;10218789;28;96871;-83
2024/01/20 10:57:12;;;;;;;2.75;1.65;;;;;;;8.20;43.70;101480.13;10215270;28;97780;-80
2024/01/20 11:02:17;;;;;;;2.70;1.48;;;;;;;8.26;43.82;101463.44;10211867;28;98861;-81
2024/01/20 11:07:23;;;;;;;4.97;2.03;;;;;;;8.39;44.17;101472.91;10209541;28;97549;-83
2024/01/20 11:12:27;;;;;;;3.55;1.83;;;;;;;8.45;44.09;101471.09;10213741;28;98953;-85
2024/01/20 11:17:32;;;;;;;2.37;1.40;;;;;;;8.45;43.45;101476.34;10212126;28;96795;-81
2024/01/20 11:22:40;;;;;;;4.88;1.65;;;;;;;8.60;43.63;101476.13;10212437;28;96781;-80
2024/01/20 11:27:48;;;;;;;2.83;1.90;;;;;;;8.55;43.53;101475.31;10212367;28;97313;-81
2024/01/20 11:32:55;;;;;;;4.28;2.45;;;;;;;8.71;43.20;101474.25;10212444;28;98713;-83
2024/01/20 11:38:00;;;;;;;5.80;2.90;;;;;;;8.66;43.02;101472.59;10210880;28;98846;-81
2024/01/20 11:43:09;;;;;;;7.05;2.42;;;;;;;8.72;42.73;101470.75;10213551;28;96850;-80
2024/01/20 11:48:17;;;;;;;3.60;2.10;;;;;;;8.73;42.72;101474.25;10213415;28;96790;-82
2024/01/20 11:53:21;;;;;;;7.25;2.58;;;;;;;8.64;42.51;101475.22;10211369;28;96804;-81
2024/01/20 11:58:26;;;;;;;3.70;1.80;;;;;;;8.76;42.22;101475.06;10215074;28;97519;-82
2024/01/20 12:03:31;;;;;;;4.40;1.90;;;;;;;8.84;42.83;101460.06;10209883;28;97404;-81
2024/01/20 12:08:36;;;;;;;6.20;2.03;;;;;;;8.88;42.40;101453.91;10213167;28;97510;-84
2024/01/20 12:13:42;;;;;;;3.55;2.10;;;;;;;8.99;41.46;101441.50;10210737;28;98619;-80
2024/01/20 12:18:48;;;;;;;4.50;2.08;;;;;;;9.05;41.40;101440.56;10222330;28;97066;-81
2024/01/20 12:23:53;;;;;;;4.60;1.75;;;;;;;9.01;41.09;101436.25;10218173;28;96842;-85
2024/01/20 12:28:58;;;;;;;3.67;1.90;;;;;;;9.09;40.98;101437.84;10218557;28;98482;-81
2024/01/20 12:34:02;;;;;;;3.50;2.00;;;;;;;9.38;40.81;101433.97;10228909;28;96767;-80
2024/01/20 12:39:07;;;;;;;;;;;;;;;9.31;39.97;101419.19;10221057;28;96893;-79
2024/01/20 12:44:11;;;;;;;5.03;1.90;;;;;;;9.32;40.59;101413.91;10218156;28;97143;-80
2024/01/20 12:49:16;;;;;;;3.90;1.90;;;;;;;9.52;40.88;101392.56;10219064;28;96824;-79
2024/01/20 12:54:20;;;;;;;3.92;1.75;;;;;;;9.52;40.91;101376.81;10217653;28;97137;-82
2024/01/20 12:59:23;;;;;;;2.65;1.50;;;;;;;9.47;39.96;101376.88;10217648;28;97148;-85
2024/01/20 13:04:28;;;;;;;3.53;1.90;;;;;;;9.50;40.63;101349.69;10213664;28;97667;-78
2024/01/20 13:09:32;;;;;;;3.22;1.50;;;;;;;9.65;40.22;101350.28;10222093;28;96936;-79
2024/01/20 13:14:35;;;;;;;2.38;1.60;;;;;;;9.65;40.57;101338.88;10219888;28;96661;-82
2024/01/20 13:19:41;;;;;;;5.07;1.80;;;;;;;9.78;40.10;101330.75;10217469;28;96927;-79
2024/01/20 13:24:44;;;;;;;2.20;1.40;;;;;;;9.85;40.71;101321.84;10221949;28;97995;-88
2024/01/20 13:29:48;;;;;;;3.15;2.05;;;;;;;9.83;41.14;101320.16;10220703;28;96690;-88
2024/01/20 13:34:53;;;;;;;3.75;1.85;;;;;;;9.95;40.33;101307.59;10219338;28;97515;-84
2024/01/20 13:39:57;;;;;;;2.85;1.58;;;;;;;10.16;39.09;101295.78;10212317;28;96869;-78
2024/01/20 13:45:00;;;;;;;3.92;1.92;;;;;;;11.68;36.91;101293.81;10213734;28;98977;-83
2024/01/20 13:50:07;;;;;;;4.72;2.13;;;;;;;12.68;35.33;101291.72;10217546;28;97592;-84
2024/01/20 13:55:11;;;;;;;3.92;2.00;;;;;;;13.59;34.00;101293.00;10219401;28;96716;-83
2024/01/20 14:00:15;;;;;;;4.03;2.15;;;;;;;14.09;32.96;101285.91;10221585;28;97857;-81
2024/01/20 14:05:20;;;;;;;5.13;1.88;;;;;;;14.14;32.03;101286.59;10211300;28;97165;-83
2024/01/20 14:10:24;;;;;;;6.72;2.78;;;;;;;13.02;33.64;101282.66;10218161;28;96746;-82
2024/01/20 14:15:28;;;;;;;8.00;2.57;;;;;;;12.21;34.76;101282.56;10229641;28;96726;-84
2024/01/20 14:20:33;;;;;;;8.50;3.15;;;;;;;11.75;35.65;101284.81;10217725;28;98756;-79
2024/01/20 14:25:37;;;;;;;6.25;2.53;;;;;;;11.49;34.62;101276.78;10210565;28;99366;-76
2024/01/20 14:30:40;;;;;;;8.18;3.83;;;;;;;11.47;35.47;101279.44;10209952;28;96842;-76
2024/01/20 14:35:47;;;;;;;9.23;3.28;;;;;;;12.62;34.39;101278.69;10213837;28;99489;-76
2024/01/20 14:40:51;;;;;;;4.68;2.10;;;;;;;12.98;33.24;101273.09;10213199;28;96808;-76
2024/01/20 14:45:54;;;;;;;5.65;2.55;;;;;;;14.29;31.92;101265.69;10240740;22;98548;-76
2024/01/20 14:50:59;;;;;;;4.68;2.25;;;;;;;15.06;31.66;101269.66;10298837;28;96779;-76
2024/01/20 14:56:03;;;;;;;4.25;2.28;;;;;;;14.56;30.65;101267.25;10295977;28;98634;-75
2024/01/20 15:01:07;;;;;;;9.25;3.03;;;;;;;14.70;30.15;101270.22;10298099;28;97005;-76
2024/01/20 15:06:12;;;;;;;7.53;2.93;;;;;;;15.27;30.25;101269.63;10298109;28;96729;-75
2024/01/20 15:11:16;;;;;;;24.85;4.60;;;;;;;15.45;30.62;101279.44;10298352;28;96642;-76
2024/01/20 15:16:19;;;;;;;13.40;3.40;;;;;;;15.38;30.74;101285.94;10297459;28;96741;-76
2024/01/20 15:21:24;;;;;;;5.60;2.67;;;;;;;15.38;30.06;101285.94;10298221;28;96660;-76
2024/01/20 15:26:28;;;;;;;4.78;2.70;;;;;;;15.63;30.62;101299.84;10296533;28;97231;-76
2024/01/20 15:31:32;;;;;;;4.63;2.65;;;;;;;15.53;30.19;101300.31;10297163;28;96681;-76
2024/01/20 15:36:36;;;;;;;8.38;2.95;;;;;;;15.20;30.37;101299.09;10296529;28;96970;-76
2024/01/20 15:41:40;;;;;;;5.88;2.85;;;;;;;14.63;30.30;101297.00;10307150;28;96868;-75
2024/01/20 15:46:44;;;;;;;10.55;4.25;;;;;;;14.67;30.52;101307.44;10312947;28;96708;-76
2024/01/20 15:51:49;;;;;;;6.20;3.53;;;;;;;14.87;30.87;101319.03;10317623;28;96752;-76
2024/01/20 15:56:53;;;;;;;9.90;4.55;;;;;;;14.74;30.95;101310.69;10322815;28;96738;-76
2024/01/20 16:01:57;;;;;;;9.65;4.18;;;;;;;15.53;30.63;101337.47;10304908;28;98669;-76
2024/01/20 16:07:02;;;;;;;12.38;5.30;;;;;;;15.45;31.21;101339.59;10301219;28;97723;-76
2024/01/20 16:12:07;;;;;;;9.13;5.15;;;;;;;15.57;31.22;101336.41;10296732;28;96972;-75
2024/01/20 16:17:10;;;;;;;10.87;4.53;;;;;;;14.96;32.29;101339.84;10304528;28;97375;-76
2024/01/20 16:22:15;;;;;;;9.23;4.03;;;;;;;14.76;32.29;101345.94;10299587;28;98469;-76
2024/01/20 16:27:19;;;;;;;10.65;4.63;;;;;;;14.87;32.13;101354.31;10300896;28;96827;-77
2024/01/20 16:32:23;;;;;;;8.63;4.40;;;;;;;13.78;33.12;101360.19;10303229;28;97996;-76
2024/01/20 16:37:28;;;;;;;8.38;4.10;;;;;;;13.41;34.11;101379.13;10297233;28;97685;-76
2024/01/20 16:42:32;;;;;;;;;;;;;;;13.36;35.14;101388.97;10302549;28;97187;-76
2024/01/20 16:47:35;;;;;;;7.50;4.05;;;;;;;13.00;35.04;101397.25;10296581;28;98162;-76
2024/01/20 16:52:40;;;;;;;9.68;5.20;;;;;;;12.95;35.94;101402.66;10302991;28;96848;-76
2024/01/20 16:57:44;;;;;;;11.90;5.55;;;;;;;12.91;36.46;101400.16;10323137;28;96783;-76
2024/01/20 17:02:47;;;;;;;8.60;4.97;;;;;;;12.40;37.60;101408.69;10302073;28;96873;-76
2024/01/20 17:07:52;;;;;;;12.63;6.05;;;;;;;11.91;38.82;101412.75;10304775;28;97470;-76
2024/01/20 17:12:56;;;;;;;12.57;5.50;;;;;;;11.39;39.87;101424.59;10301064;28;96758;-76
2024/01/20 17:17:59;;;;;;;10.43;4.93;;;;;;;11.23;41.28;101441.66;10275376;28;97265;-76
2024/01/20 17:23:04;;;;;;;18.35;8.48;;;;;;;10.82;42.44;101449.59;10284959;28;97620;-76
2024/01/20 17:28:08;;;;;;;11.07;5.90;;;;;;;10.47;44.02;101456.50;10300485;28;97408;-75
2024/01/20 17:33:11;;;;;;;13.70;6.95;;;;;;;10.24;45.66;101465.72;10300497;28;96741;-75
2024/01/20 17:38:16;;;;;;;17.85;8.30;;;;;;;10.03;45.80;101495.03;10300633;28;96774;-75
2024/01/20 17:43:20;;;;;;;19.08;9.82;;;;;;;9.92;47.20;101504.88;10290658;28;97734;-76
2024/01/20 17:48:24;;;;;;;22.75;9.68;;;;;;;9.80;47.60;101506.81;10297841;28;98921;-76
2024/01/20 17:53:33;;;;;;;15.40;7.50;;;;;;;9.56;48.45;101526.50;10295056;28;96782;-76
2024/01/20 17:58:37;;;;;;;19.70;11.18;;;;;;;9.36;49.18;101539.06;10297488;28;96760;-76
2024/01/20 18:03:41;;;;;;;25.55;12.13;;;;;;;9.32;50.02;101542.63;10294601;28;96931;-76
2024/01/20 18:08:46;;;;;;;23.50;10.80;;;;;;;9.02;51.05;101551.72;10298065;28;96727;-76
2024/01/20 18:13:52;;;;;;;24.02;10.98;;;;;;;8.90;53.10;101551.88;10292163;28;96815;-86
2024/01/20 18:18:56;;;;;;;19.17;9.43;;;;;;;8.70;53.77;101551.25;10290726;28;98991;-78
2024/01/20 18:24:02;;;;;;;15.38;8.52;;;;;;;8.47;55.26;101555.88;10290747;28;98505;-78
2024/01/20 18:29:05;;;;;;;;;;;;;;;8.33;57.92;101567.38;10278118;28;99015;-78
2024/01/20 18:34:09;;;;;;;15.88;8.23;;;;;;;8.08;57.76;101582.50;10274038;28;97512;-79
2024/01/20 18:39:14;;;;;;;17.70;8.77;;;;;;;7.91;59.54;101585.22;10280816;28;98820;-78
2024/01/20 18:44:18;;;;;;;20.33;9.13;;;;;;;7.87;60.35;101580.88;10297080;28;98116;-79
2024/01/20 18:49:21;;;;;;;19.05;9.50;;;;;;;7.75;60.66;101580.13;10294548;28;96895;-79
2024/01/20 18:54:26;;;;;;;18.85;9.80;;;;;;;7.80;60.31;101589.66;10296331;28;99008;-78
2024/01/20 18:59:30;;;;;;;25.42;10.43;;;;;;;7.83;59.42;101591.41;10296837;28;96857;-78
2024/01/20 19:04:36;;;;;;;24.00;9.63;;;;;;;7.69;60.20;101607.22;10312589;28;96803;-79
2024/01/20 19:09:41;;;;;;;27.10;10.32;;;;;;;7.59;61.61;101607.28;10296094;28;96804;-78
2024/01/20 19:14:46;;;;;;;19.17;9.38;;;;;;;7.52;61.73;101600.34;10296665;28;96600;-79
2024/01/20 19:19:49;;;;;;;20.40;9.77;;;;;;;7.49;61.78;101608.22;10301439;28;97056;-79
2024/01/20 19:24:55;;;;;;;19.23;9.85;;;;;;;7.43;61.07;101584.69;10296289;28;96665;-80
2024/01/20 19:30:00;;;;;;;18.13;9.65;;;;;;;7.18;64.57;101604.88;10294691;28;98916;-79
2024/01/20 19:35:04;;;;;;;20.17;10.32;;;;;;;7.04;64.68;101613.66;10295372;28;96716;-80
2024/01/20 19:40:13;;;;;;;21.30;10.95;;;;;;;7.03;65.68;101623.25;10292139;28;97142;-79
2024/01/20 19:45:16;;;;;;;20.75;10.15;;;;;;;7.02;65.96;101634.63;10294421;28;96898;-78
2024/01/20 19:50:22;;;;;;;19.48;10.00;;;;;;;6.99;66.36;101633.75;10294185;28;96877;-79
2024/01/20 19:55:30;;;;;;;17.38;9.20;;;;;;;7.02;64.93;101644.19;10293493;28;96701;-79
2024/01/20 20:00:33;;;;;;;18.38;8.60;;;;;;;7.18;63.58;101672.94;10294522;28;98457;-79
2024/01/20 20:05:39;;;;;;;20.27;10.30;;;;;;;7.01;62.90;101686.97;10294720;28;96762;-79
2024/01/20 20:10:47;;;;;;;23.88;10.77;;;;;;;6.88;65.97;101680.00;10287732;28;97430;-78
2024/01/20 20:15:50;;;;;;;18.15;9.82;;;;;;;6.87;65.54;101684.34;10281680;28;97775;-78
2024/01/20 20:20:54;;;;;;;18.67;10.43;;;;;;;7.02;64.74;101714.84;10295149;28;96864;-78
2024/01/20 20:25:59;;;;;;;17.63;9.85;;;;;;;6.84;65.15;101731.44;10293639;28;96829;-79
2024/01/20 20:31:05;;;;;;;20.92;10.68;;;;;;;6.65;68.29;101721.84;10293624;28;96987;-79
2024/01/20 20:36:13;;;;;;;19.10;10.75;;;;;;;6.60;68.40;101716.63;10292235;28;96674;-79
2024/01/20 20:41:20;;;;;;;19.23;10.48;;;;;;;6.62;66.90;101709.66;10297217;28;96841;-80
2024/01/20 20:46:24;;;;;;;20.67;10.45;;;;;;;6.79;65.64;101694.81;10299770;28;96723;-79
2024/01/20 20:51:28;;;;;;;20.20;10.43;;;;;;;6.85;64.95;101701.81;10300104;28;96881;-83
2024/01/20 20:56:33;;;;;;;17.55;9.50;;;;;;;6.94;64.22;101714.00;10299029;28;96904;-79
2024/01/20 21:01:36;;;;;;;14.90;8.35;;;;;;;7.00;64.19;101708.75;10301998;28;98833;-78
2024/01/20 21:06:40;;;;;;;17.98;8.73;;;;;;;6.86;64.62;101716.63;10299742;28;97290;-79
2024/01/20 21:11:45;;;;;;;15.98;8.60;;;;;;;6.74;66.24;101720.09;10298299;28;98107;-78
2024/01/20 21:16:48;;;;;;;19.48;9.23;;;;;;;6.67;65.18;101715.75;10297887;28;96884;-79
2024/01/20 21:21:52;;;;;;;22.52;10.10;;;;;;;6.78;65.29;101742.75;10298152;28;96929;-77
2024/01/20 21:26:57;;;;;;;21.30;10.18;;;;;;;6.68;65.54;101754.09;10301273;28;98821;-78
2024/01/20 21:32:01;;;;;;;26.92;10.90;;;;;;;6.70;65.35;101778.53;10305504;28;97822;-78
2024/01/20 21:37:05;;;;;;;18.60;10.30;;;;;;;6.39;65.87;101781.97;10315793;28;99097;-78
2024/01/20 21:42:11;;;;;;;19.25;11.15;;;;;;;6.38;66.33;101795.03;10308531;28;96868;-78
2024/01/20 21:47:14;;;;;;;17.60;9.45;;;;;;;6.46;67.09;101791.56;10307509;28;96792;-78
2024/01/20 21:52:18;;;;;;;18.52;10.52;;;;;;;6.55;66.32;101780.25;10313956;28;98376;-79
2024/01/20 21:57:24;;;;;;;21.60;10.25;;;;;;;6.65;65.66;101798.56;10318028;28;96682;-79
2024/01/20 22:02:28;;;;;;;24.52;10.52;;;;;;;6.74;64.40;101816.91;10310693;28;96695;-84
2024/01/20 22:07:32;;;;;;;20.95;10.80;;;;;;;6.61;66.49;101809.88;10294794;28;97424;-80
2024/01/20 22:12:38;;;;;;;22.50;10.20;;;;;;;6.62;66.07;101816.00;10292134;28;98915;-80
2024/01/20 22:17:43;;;;;;;21.92;10.27;;;;;;;6.55;65.98;101827.31;10289446;28;96913;-80
2024/01/20 22:22:47;;;;;;;21.83;9.18;;;;;;;6.29;70.06;101845.56;10290058;28;98534;-82
2024/01/20 22:27:55;;;;;;;23.98;11.07;;;;;;;6.32;68.29;101827.28;10295696;28;96856;-83
2024/01/20 22:33:02;;;;;;;21.67;11.48;;;;;;;6.15;70.11;101830.69;10294111;28;98933;-84
2024/01/20 22:38:07;;;;;;;19.67;11.07;;;;;;;6.05;70.26;101824.59;10291453;28;96717;-81
2024/01/20 22:43:13;;;;;;;20.38;10.57;;;;;;;5.88;71.68;101817.53;10295608;28;96999;-80
2024/01/20 22:48:17;;;;;;;20.60;10.93;;;;;;;5.84;71.08;101829.72;10295488;28;96663;-81
2024/01/20 22:53:21;;;;;;;23.60;10.18;;;;;;;5.75;72.09;101840.09;10294722;28;96778;-80
2024/01/20 22:58:26;;;;;;;20.77;10.43;;;;;;;5.77;74.05;101835.78;10302127;28;98454;-79
2024/01/20 23:03:30;;;;;;;18.38;10.07;;;;;;;5.81;72.53;101818.38;10300672;28;96714;-79
2024/01/20 23:08:34;;;;;;;22.17;10.23;;;;;;;5.72;73.93;101813.09;10299832;28;96696;-79
2024/01/20 23:13:39;;;;;;;24.10;10.93;;;;;;;5.73;73.83;101792.22;10318465;28;96759;-79
2024/01/20 23:18:42;;;;;;;21.88;11.15;;;;;;;5.84;73.71;101785.31;10308101;28;97052;-79
2024/01/20 23:23:46;;;;;;;24.35;11.05;;;;;;;6.00;70.72;101814.97;10296252;28;96691;-79
2024/01/20 23:28:50;;;;;;;19.30;11.32;;;;;;;6.05;71.05;101795.84;10296625;28;96865;-79